sensor_id;sensor_type;location;lat;lon;timestamp;P1;durP1;ratioP1;P2;durP2;ratioP2
10537;SDS011;5317;49.048;8.468;2022-07-10T00:01:36;4.80;;;2.93;;
10537;SDS011;5317;49.048;8.468;2022-07-10T00:04:03;3.20;;;2.90;;
10537;SDS011;5317;49.048;8.468;2022-07-10T00:06:31;3.23;;;2.93;;
10537;SDS011;5317;49.048;8.468;2022-07-10T00:08:58;3.20;;;2.90;;
10537;SDS011;5317;49.048;8.468;2022-07-10T00:11:25;3.30;;;3.00;;
10537;SDS011;5317;49.048;8.468;2022-07-10T00:13:54;4.00;;;2.80;;
10537;SDS011;5317;49.048;8.468;2022-07-10T00:16:22;3.00;;;2.80;;
10537;SDS011;5317;49.048;8.468;2022-07-10T00:18:50;4.67;;;2.93;;
10537;SDS011;5317;49.048;8.468;2022-07-10T00:21:17;2.90;;;2.67;;
10537;SDS011;5317;49.048;8.468;2022-07-10T00:23:45;3.43;;;3.13;;
10537;SDS011;5317;49.048;8.468;2022-07-10T00:26:12;3.20;;;2.90;;
10537;SDS011;5317;49.048;8.468;2022-07-10T00:28:40;3.10;;;2.90;;
10537;SDS011;5317;49.048;8.468;2022-07-10T00:31:08;3.83;;;2.80;;
10537;SDS011;5317;49.048;8.468;2022-07-10T00:33:36;5.13;;;3.03;;
10537;SDS011;5317;49.048;8.468;2022-07-10T00:36:03;3.10;;;2.90;;
10537;SDS011;5317;49.048;8.468;2022-07-10T00:38:31;3.03;;;2.73;;
10537;SDS011;5317;49.048;8.468;2022-07-10T00:40:59;4.07;;;3.00;;
10537;SDS011;5317;49.048;8.468;2022-07-10T00:43:26;3.43;;;3.13;;
10537;SDS011;5317;49.048;8.468;2022-07-10T00:45:53;2.93;;;2.70;;
10537;SDS011;5317;49.048;8.468;2022-07-10T00:48:22;3.70;;;3.10;;
10537;SDS011;5317;49.048;8.468;2022-07-10T00:50:49;3.83;;;3.43;;
10537;SDS011;5317;49.048;8.468;2022-07-10T00:53:16;3.73;;;3.43;;
10537;SDS011;5317;49.048;8.468;2022-07-10T00:55:44;3.50;;;3.20;;
10537;SDS011;5317;49.048;8.468;2022-07-10T00:58:11;6.77;;;3.70;;
10537;SDS011;5317;49.048;8.468;2022-07-10T01:00:40;3.23;;;3.03;;
10537;SDS011;5317;49.048;8.468;2022-07-10T01:03:08;5.30;;;3.50;;
10537;SDS011;5317;49.048;8.468;2022-07-10T01:05:36;3.87;;;3.40;;
10537;SDS011;5317;49.048;8.468;2022-07-10T01:08:03;4.23;;;3.83;;
10537;SDS011;5317;49.048;8.468;2022-07-10T01:10:31;3.47;;;3.10;;
10537;SDS011;5317;49.048;8.468;2022-07-10T01:12:58;3.53;;;3.23;;
10537;SDS011;5317;49.048;8.468;2022-07-10T01:15:28;4.30;;;3.77;;
10537;SDS011;5317;49.048;8.468;2022-07-10T01:17:55;4.77;;;3.90;;
10537;SDS011;5317;49.048;8.468;2022-07-10T01:20:29;3.73;;;3.40;;
10537;SDS011;5317;49.048;8.468;2022-07-10T01:22:59;4.03;;;3.73;;
10537;SDS011;5317;49.048;8.468;2022-07-10T01:25:27;3.70;;;3.37;;
10537;SDS011;5317;49.048;8.468;2022-07-10T01:27:54;3.87;;;3.10;;
10537;SDS011;5317;49.048;8.468;2022-07-10T01:30:21;3.40;;;2.90;;
10537;SDS011;5317;49.048;8.468;2022-07-10T01:32:48;4.87;;;2.93;;
10537;SDS011;5317;49.048;8.468;2022-07-10T01:35:15;3.00;;;2.80;;
10537;SDS011;5317;49.048;8.468;2022-07-10T01:37:42;2.83;;;2.57;;
10537;SDS011;5317;49.048;8.468;2022-07-10T01:40:12;2.77;;;2.47;;
10537;SDS011;5317;49.048;8.468;2022-07-10T01:42:39;4.17;;;2.77;;
10537;SDS011;5317;49.048;8.468;2022-07-10T01:45:06;2.90;;;2.60;;
10537;SDS011;5317;49.048;8.468;2022-07-10T01:47:35;3.47;;;2.67;;
10537;SDS011;5317;49.048;8.468;2022-07-10T01:50:03;3.53;;;2.30;;
10537;SDS011;5317;49.048;8.468;2022-07-10T01:52:33;2.40;;;2.13;;
10537;SDS011;5317;49.048;8.468;2022-07-10T01:55:01;2.60;;;2.40;;
10537;SDS011;5317;49.048;8.468;2022-07-10T01:57:30;2.70;;;2.50;;
10537;SDS011;5317;49.048;8.468;2022-07-10T01:59:57;2.53;;;2.33;;
10537;SDS011;5317;49.048;8.468;2022-07-10T02:02:24;2.70;;;2.40;;
10537;SDS011;5317;49.048;8.468;2022-07-10T02:04:52;3.63;;;2.60;;
10537;SDS011;5317;49.048;8.468;2022-07-10T02:07:18;2.60;;;2.40;;
10537;SDS011;5317;49.048;8.468;2022-07-10T02:09:47;4.37;;;2.77;;
10537;SDS011;5317;49.048;8.468;2022-07-10T02:12:15;2.70;;;2.27;;
10537;SDS011;5317;49.048;8.468;2022-07-10T02:14:44;4.40;;;2.30;;
10537;SDS011;5317;49.048;8.468;2022-07-10T02:17:11;2.60;;;2.40;;
10537;SDS011;5317;49.048;8.468;2022-07-10T02:19:38;2.90;;;2.60;;
10537;SDS011;5317;49.048;8.468;2022-07-10T02:22:05;2.60;;;2.40;;
10537;SDS011;5317;49.048;8.468;2022-07-10T02:24:32;3.13;;;2.00;;
10537;SDS011;5317;49.048;8.468;2022-07-10T02:27:00;2.93;;;2.33;;
10537;SDS011;5317;49.048;8.468;2022-07-10T02:29:26;4.83;;;2.20;;
10537;SDS011;5317;49.048;8.468;2022-07-10T02:31:55;2.70;;;2.17;;
10537;SDS011;5317;49.048;8.468;2022-07-10T02:34:22;2.83;;;2.20;;
10537;SDS011;5317;49.048;8.468;2022-07-10T02:36:50;2.87;;;2.03;;
10537;SDS011;5317;49.048;8.468;2022-07-10T02:39:17;3.47;;;2.07;;
10537;SDS011;5317;49.048;8.468;2022-07-10T02:41:47;4.53;;;2.37;;
10537;SDS011;5317;49.048;8.468;2022-07-10T02:44:14;2.87;;;2.07;;
10537;SDS011;5317;49.048;8.468;2022-07-10T02:46:41;2.23;;;2.03;;
10537;SDS011;5317;49.048;8.468;2022-07-10T02:49:09;4.10;;;2.03;;
10537;SDS011;5317;49.048;8.468;2022-07-10T02:51:37;2.50;;;2.00;;
10537;SDS011;5317;49.048;8.468;2022-07-10T02:54:04;3.63;;;2.20;;
10537;SDS011;5317;49.048;8.468;2022-07-10T02:56:32;2.83;;;2.10;;
10537;SDS011;5317;49.048;8.468;2022-07-10T02:59:01;2.37;;;1.73;;
10537;SDS011;5317;49.048;8.468;2022-07-10T03:01:28;2.30;;;2.00;;
10537;SDS011;5317;49.048;8.468;2022-07-10T03:03:55;2.63;;;1.90;;
10537;SDS011;5317;49.048;8.468;2022-07-10T03:06:24;3.37;;;1.90;;
10537;SDS011;5317;49.048;8.468;2022-07-10T03:08:51;3.07;;;2.53;;
10537;SDS011;5317;49.048;8.468;2022-07-10T03:11:18;2.23;;;2.00;;
10537;SDS011;5317;49.048;8.468;2022-07-10T03:13:46;3.23;;;1.97;;
10537;SDS011;5317;49.048;8.468;2022-07-10T03:16:13;3.23;;;2.00;;
10537;SDS011;5317;49.048;8.468;2022-07-10T03:18:40;2.30;;;2.10;;
10537;SDS011;5317;49.048;8.468;2022-07-10T03:21:07;4.23;;;2.07;;
10537;SDS011;5317;49.048;8.468;2022-07-10T03:23:35;2.27;;;2.13;;
10537;SDS011;5317;49.048;8.468;2022-07-10T03:26:04;3.50;;;2.13;;
10537;SDS011;5317;49.048;8.468;2022-07-10T03:28:32;2.40;;;2.17;;
10537;SDS011;5317;49.048;8.468;2022-07-10T03:31:00;3.60;;;2.13;;
10537;SDS011;5317;49.048;8.468;2022-07-10T03:33:28;2.67;;;1.87;;
10537;SDS011;5317;49.048;8.468;2022-07-10T03:35:55;2.43;;;2.00;;
10537;SDS011;5317;49.048;8.468;2022-07-10T03:38:22;3.47;;;1.87;;
10537;SDS011;5317;49.048;8.468;2022-07-10T03:40:51;2.97;;;1.90;;
10537;SDS011;5317;49.048;8.468;2022-07-10T03:43:18;2.07;;;1.87;;
10537;SDS011;5317;49.048;8.468;2022-07-10T03:45:45;3.47;;;2.03;;
10537;SDS011;5317;49.048;8.468;2022-07-10T03:48:13;3.07;;;1.90;;
10537;SDS011;5317;49.048;8.468;2022-07-10T03:50:40;3.40;;;2.13;;
10537;SDS011;5317;49.048;8.468;2022-07-10T03:53:07;3.10;;;1.97;;
10537;SDS011;5317;49.048;8.468;2022-07-10T03:55:34;5.33;;;2.40;;
10537;SDS011;5317;49.048;8.468;2022-07-10T03:58:02;4.47;;;2.20;;
10537;SDS011;5317;49.048;8.468;2022-07-10T04:00:30;2.23;;;2.03;;
10537;SDS011;5317;49.048;8.468;2022-07-10T04:02:58;2.70;;;2.20;;
10537;SDS011;5317;49.048;8.468;2022-07-10T04:05:27;2.93;;;1.97;;
10537;SDS011;5317;49.048;8.468;2022-07-10T04:07:56;3.43;;;2.10;;
10537;SDS011;5317;49.048;8.468;2022-07-10T04:10:25;3.50;;;2.20;;
10537;SDS011;5317;49.048;8.468;2022-07-10T04:12:55;3.97;;;2.27;;
10537;SDS011;5317;49.048;8.468;2022-07-10T04:15:24;4.83;;;2.10;;
10537;SDS011;5317;49.048;8.468;2022-07-10T04:17:51;7.10;;;3.07;;
10537;SDS011;5317;49.048;8.468;2022-07-10T04:20:19;2.93;;;2.30;;
10537;SDS011;5317;49.048;8.468;2022-07-10T04:22:48;3.40;;;2.10;;
10537;SDS011;5317;49.048;8.468;2022-07-10T04:25:15;5.70;;;2.33;;
10537;SDS011;5317;49.048;8.468;2022-07-10T04:27:42;3.17;;;2.13;;
10537;SDS011;5317;49.048;8.468;2022-07-10T04:30:10;3.60;;;2.20;;
10537;SDS011;5317;49.048;8.468;2022-07-10T04:32:42;2.27;;;1.80;;
10537;SDS011;5317;49.048;8.468;2022-07-10T04:35:09;3.23;;;2.00;;
10537;SDS011;5317;49.048;8.468;2022-07-10T04:37:36;6.40;;;2.03;;
10537;SDS011;5317;49.048;8.468;2022-07-10T04:40:04;2.97;;;2.00;;
10537;SDS011;5317;49.048;8.468;2022-07-10T04:42:35;6.50;;;2.80;;
10537;SDS011;5317;49.048;8.468;2022-07-10T04:45:03;12.97;;;3.80;;
10537;SDS011;5317;49.048;8.468;2022-07-10T04:47:31;6.77;;;3.13;;
10537;SDS011;5317;49.048;8.468;2022-07-10T04:50:00;4.00;;;2.10;;
10537;SDS011;5317;49.048;8.468;2022-07-10T04:52:27;9.77;;;3.10;;
10537;SDS011;5317;49.048;8.468;2022-07-10T04:54:54;6.07;;;2.37;;
10537;SDS011;5317;49.048;8.468;2022-07-10T04:57:21;3.07;;;1.90;;
10537;SDS011;5317;49.048;8.468;2022-07-10T04:59:48;7.30;;;2.40;;
10537;SDS011;5317;49.048;8.468;2022-07-10T05:02:16;1.60;;;1.50;;
10537;SDS011;5317;49.048;8.468;2022-07-10T05:04:43;4.00;;;1.87;;
10537;SDS011;5317;49.048;8.468;2022-07-10T05:07:11;1.83;;;1.73;;
10537;SDS011;5317;49.048;8.468;2022-07-10T05:09:39;1.97;;;1.50;;
10537;SDS011;5317;49.048;8.468;2022-07-10T05:12:06;4.33;;;1.63;;
10537;SDS011;5317;49.048;8.468;2022-07-10T05:14:34;3.30;;;1.50;;
10537;SDS011;5317;49.048;8.468;2022-07-10T05:17:01;4.17;;;1.70;;
10537;SDS011;5317;49.048;8.468;2022-07-10T05:19:29;2.47;;;1.70;;
10537;SDS011;5317;49.048;8.468;2022-07-10T05:21:56;3.83;;;1.93;;
10537;SDS011;5317;49.048;8.468;2022-07-10T05:24:25;3.57;;;1.83;;
10537;SDS011;5317;49.048;8.468;2022-07-10T05:26:52;1.80;;;1.70;;
10537;SDS011;5317;49.048;8.468;2022-07-10T05:29:19;2.17;;;1.97;;
10537;SDS011;5317;49.048;8.468;2022-07-10T05:31:46;3.10;;;1.43;;
10537;SDS011;5317;49.048;8.468;2022-07-10T05:34:13;2.53;;;1.80;;
10537;SDS011;5317;49.048;8.468;2022-07-10T05:36:40;3.40;;;1.80;;
10537;SDS011;5317;49.048;8.468;2022-07-10T05:39:07;4.70;;;1.90;;
10537;SDS011;5317;49.048;8.468;2022-07-10T05:41:36;3.03;;;1.70;;
10537;SDS011;5317;49.048;8.468;2022-07-10T05:44:03;3.20;;;1.83;;
10537;SDS011;5317;49.048;8.468;2022-07-10T05:46:30;3.10;;;1.70;;
10537;SDS011;5317;49.048;8.468;2022-07-10T05:48:58;2.87;;;1.77;;
10537;SDS011;5317;49.048;8.468;2022-07-10T05:51:25;2.10;;;1.47;;
10537;SDS011;5317;49.048;8.468;2022-07-10T05:53:52;2.07;;;1.30;;
10537;SDS011;5317;49.048;8.468;2022-07-10T05:56:19;3.30;;;1.70;;
10537;SDS011;5317;49.048;8.468;2022-07-10T05:58:47;2.40;;;1.80;;
10537;SDS011;5317;49.048;8.468;2022-07-10T06:01:15;2.13;;;1.43;;
10537;SDS011;5317;49.048;8.468;2022-07-10T06:03:42;2.53;;;1.63;;
10537;SDS011;5317;49.048;8.468;2022-07-10T06:06:10;2.80;;;2.00;;
10537;SDS011;5317;49.048;8.468;2022-07-10T06:08:40;3.00;;;1.70;;
10537;SDS011;5317;49.048;8.468;2022-07-10T06:11:07;4.27;;;1.90;;
10537;SDS011;5317;49.048;8.468;2022-07-10T06:13:35;4.07;;;2.10;;
10537;SDS011;5317;49.048;8.468;2022-07-10T06:16:05;4.43;;;1.87;;
10537;SDS011;5317;49.048;8.468;2022-07-10T06:18:36;2.37;;;1.87;;
10537;SDS011;5317;49.048;8.468;2022-07-10T06:21:08;3.00;;;1.80;;
10537;SDS011;5317;49.048;8.468;2022-07-10T06:23:35;3.90;;;1.70;;
10537;SDS011;5317;49.048;8.468;2022-07-10T06:26:03;1.77;;;1.67;;
10537;SDS011;5317;49.048;8.468;2022-07-10T06:28:33;3.40;;;1.70;;
10537;SDS011;5317;49.048;8.468;2022-07-10T06:31:01;4.53;;;1.80;;
10537;SDS011;5317;49.048;8.468;2022-07-10T06:33:29;3.37;;;1.53;;
10537;SDS011;5317;49.048;8.468;2022-07-10T06:35:57;3.37;;;1.77;;
10537;SDS011;5317;49.048;8.468;2022-07-10T06:38:25;3.57;;;2.13;;
10537;SDS011;5317;49.048;8.468;2022-07-10T06:40:52;3.97;;;2.00;;
10537;SDS011;5317;49.048;8.468;2022-07-10T06:43:19;2.33;;;1.67;;
10537;SDS011;5317;49.048;8.468;2022-07-10T06:45:47;4.47;;;1.97;;
10537;SDS011;5317;49.048;8.468;2022-07-10T06:48:15;4.10;;;1.40;;
10537;SDS011;5317;49.048;8.468;2022-07-10T06:50:43;4.30;;;1.93;;
10537;SDS011;5317;49.048;8.468;2022-07-10T06:53:10;2.20;;;1.60;;
10537;SDS011;5317;49.048;8.468;2022-07-10T06:55:38;2.10;;;1.63;;
10537;SDS011;5317;49.048;8.468;2022-07-10T06:58:05;4.63;;;1.90;;
10537;SDS011;5317;49.048;8.468;2022-07-10T07:00:32;4.30;;;1.73;;
10537;SDS011;5317;49.048;8.468;2022-07-10T07:02:59;2.97;;;1.70;;
10537;SDS011;5317;49.048;8.468;2022-07-10T07:05:27;1.77;;;1.60;;
10537;SDS011;5317;49.048;8.468;2022-07-10T07:07:55;6.87;;;2.07;;
10537;SDS011;5317;49.048;8.468;2022-07-10T07:10:22;2.20;;;1.53;;
10537;SDS011;5317;49.048;8.468;2022-07-10T07:12:51;2.93;;;1.70;;
10537;SDS011;5317;49.048;8.468;2022-07-10T07:15:18;2.20;;;1.37;;
10537;SDS011;5317;49.048;8.468;2022-07-10T07:17:48;3.00;;;1.87;;
10537;SDS011;5317;49.048;8.468;2022-07-10T07:20:32;3.33;;;1.70;;
10537;SDS011;5317;49.048;8.468;2022-07-10T07:23:19;3.47;;;1.50;;
10537;SDS011;5317;49.048;8.468;2022-07-10T07:25:47;3.57;;;1.70;;
10537;SDS011;5317;49.048;8.468;2022-07-10T07:28:14;4.47;;;1.80;;
10537;SDS011;5317;49.048;8.468;2022-07-10T07:30:43;3.73;;;1.57;;
10537;SDS011;5317;49.048;8.468;2022-07-10T07:33:11;2.80;;;1.70;;
10537;SDS011;5317;49.048;8.468;2022-07-10T07:35:38;1.60;;;1.50;;
10537;SDS011;5317;49.048;8.468;2022-07-10T07:38:06;2.27;;;1.70;;
10537;SDS011;5317;49.048;8.468;2022-07-10T07:40:35;3.17;;;1.50;;
10537;SDS011;5317;49.048;8.468;2022-07-10T07:43:03;2.07;;;1.60;;
10537;SDS011;5317;49.048;8.468;2022-07-10T07:45:30;3.33;;;1.50;;
10537;SDS011;5317;49.048;8.468;2022-07-10T07:47:58;4.63;;;1.50;;
10537;SDS011;5317;49.048;8.468;2022-07-10T07:50:27;2.63;;;2.03;;
10537;SDS011;5317;49.048;8.468;2022-07-10T07:52:57;3.37;;;2.00;;
10537;SDS011;5317;49.048;8.468;2022-07-10T07:55:26;3.33;;;1.50;;
10537;SDS011;5317;49.048;8.468;2022-07-10T07:57:56;3.60;;;1.53;;
10537;SDS011;5317;49.048;8.468;2022-07-10T08:00:24;5.13;;;1.93;;
10537;SDS011;5317;49.048;8.468;2022-07-10T08:02:54;4.27;;;1.50;;
10537;SDS011;5317;49.048;8.468;2022-07-10T08:05:23;1.50;;;1.37;;
10537;SDS011;5317;49.048;8.468;2022-07-10T08:07:51;2.60;;;1.50;;
10537;SDS011;5317;49.048;8.468;2022-07-10T08:10:21;2.67;;;1.80;;
10537;SDS011;5317;49.048;8.468;2022-07-10T08:12:51;3.63;;;1.53;;
10537;SDS011;5317;49.048;8.468;2022-07-10T08:15:20;2.00;;;1.40;;
10537;SDS011;5317;49.048;8.468;2022-07-10T08:17:48;4.93;;;1.47;;
10537;SDS011;5317;49.048;8.468;2022-07-10T08:20:17;1.77;;;1.00;;
10537;SDS011;5317;49.048;8.468;2022-07-10T08:22:44;3.27;;;1.27;;
10537;SDS011;5317;49.048;8.468;2022-07-10T08:25:13;3.30;;;1.70;;
10537;SDS011;5317;49.048;8.468;2022-07-10T08:27:41;2.70;;;1.47;;
10537;SDS011;5317;49.048;8.468;2022-07-10T08:30:08;4.97;;;1.47;;
10537;SDS011;5317;49.048;8.468;2022-07-10T08:32:38;1.40;;;1.30;;
10537;SDS011;5317;49.048;8.468;2022-07-10T08:35:07;2.37;;;1.07;;
10537;SDS011;5317;49.048;8.468;2022-07-10T08:37:37;2.90;;;1.63;;
10537;SDS011;5317;49.048;8.468;2022-07-10T08:40:05;3.20;;;1.17;;
10537;SDS011;5317;49.048;8.468;2022-07-10T08:42:35;2.40;;;1.23;;
10537;SDS011;5317;49.048;8.468;2022-07-10T08:45:02;3.20;;;1.53;;
10537;SDS011;5317;49.048;8.468;2022-07-10T08:47:32;3.10;;;1.27;;
10537;SDS011;5317;49.048;8.468;2022-07-10T08:50:03;2.30;;;1.33;;
10537;SDS011;5317;49.048;8.468;2022-07-10T08:52:42;5.13;;;1.77;;
10537;SDS011;5317;49.048;8.468;2022-07-10T08:55:13;1.03;;;0.97;;
10537;SDS011;5317;49.048;8.468;2022-07-10T08:57:41;1.83;;;0.97;;
10537;SDS011;5317;49.048;8.468;2022-07-10T09:00:10;5.43;;;1.50;;
10537;SDS011;5317;49.048;8.468;2022-07-10T09:02:37;2.07;;;1.40;;
10537;SDS011;5317;49.048;8.468;2022-07-10T09:05:06;1.27;;;1.10;;
10537;SDS011;5317;49.048;8.468;2022-07-10T09:07:34;6.10;;;1.20;;
10537;SDS011;5317;49.048;8.468;2022-07-10T09:10:05;1.57;;;1.17;;
10537;SDS011;5317;49.048;8.468;2022-07-10T09:12:48;1.67;;;1.00;;
10537;SDS011;5317;49.048;8.468;2022-07-10T09:15:18;2.70;;;1.50;;
10537;SDS011;5317;49.048;8.468;2022-07-10T09:17:52;3.20;;;1.20;;
10537;SDS011;5317;49.048;8.468;2022-07-10T09:20:29;1.53;;;1.10;;
10537;SDS011;5317;49.048;8.468;2022-07-10T09:22:59;2.13;;;0.77;;
10537;SDS011;5317;49.048;8.468;2022-07-10T09:25:42;2.43;;;0.93;;
10537;SDS011;5317;49.048;8.468;2022-07-10T09:28:10;1.20;;;1.03;;
10537;SDS011;5317;49.048;8.468;2022-07-10T09:30:39;2.17;;;0.83;;
10537;SDS011;5317;49.048;8.468;2022-07-10T09:33:16;1.00;;;0.90;;
10537;SDS011;5317;49.048;8.468;2022-07-10T09:36:01;2.00;;;1.10;;
10537;SDS011;5317;49.048;8.468;2022-07-10T09:38:52;3.43;;;0.90;;
10537;SDS011;5317;49.048;8.468;2022-07-10T09:41:26;0.87;;;0.73;;
10537;SDS011;5317;49.048;8.468;2022-07-10T09:43:56;1.70;;;1.37;;
10537;SDS011;5317;49.048;8.468;2022-07-10T09:46:27;1.43;;;0.90;;
10537;SDS011;5317;49.048;8.468;2022-07-10T09:49:01;1.23;;;0.80;;
10537;SDS011;5317;49.048;8.468;2022-07-10T09:51:34;1.33;;;0.90;;
10537;SDS011;5317;49.048;8.468;2022-07-10T09:54:03;1.17;;;1.03;;
10537;SDS011;5317;49.048;8.468;2022-07-10T09:56:34;2.87;;;1.20;;
10537;SDS011;5317;49.048;8.468;2022-07-10T09:59:10;2.17;;;0.93;;
10537;SDS011;5317;49.048;8.468;2022-07-10T10:01:42;1.07;;;0.70;;
10537;SDS011;5317;49.048;8.468;2022-07-10T10:04:12;0.73;;;0.73;;
10537;SDS011;5317;49.048;8.468;2022-07-10T10:06:42;1.60;;;0.63;;
10537;SDS011;5317;49.048;8.468;2022-07-10T10:09:15;1.40;;;0.97;;
10537;SDS011;5317;49.048;8.468;2022-07-10T10:11:51;3.83;;;0.93;;
10537;SDS011;5317;49.048;8.468;2022-07-10T10:14:25;1.20;;;0.80;;
10537;SDS011;5317;49.048;8.468;2022-07-10T10:16:55;1.37;;;0.77;;
10537;SDS011;5317;49.048;8.468;2022-07-10T10:19:24;2.00;;;0.83;;
10537;SDS011;5317;49.048;8.468;2022-07-10T10:22:12;2.07;;;0.87;;
10537;SDS011;5317;49.048;8.468;2022-07-10T10:24:44;1.47;;;1.00;;
10537;SDS011;5317;49.048;8.468;2022-07-10T10:27:13;2.20;;;1.00;;
10537;SDS011;5317;49.048;8.468;2022-07-10T10:29:43;0.90;;;0.80;;
10537;SDS011;5317;49.048;8.468;2022-07-10T10:32:13;1.83;;;0.77;;
10537;SDS011;5317;49.048;8.468;2022-07-10T10:34:42;2.23;;;0.70;;
10537;SDS011;5317;49.048;8.468;2022-07-10T10:37:32;1.87;;;0.93;;
10537;SDS011;5317;49.048;8.468;2022-07-10T10:40:03;2.43;;;1.10;;
10537;SDS011;5317;49.048;8.468;2022-07-10T10:42:33;2.60;;;0.97;;
10537;SDS011;5317;49.048;8.468;2022-07-10T10:48:00;1.60;;;0.73;;
10537;SDS011;5317;49.048;8.468;2022-07-10T10:50:37;3.43;;;1.03;;
10537;SDS011;5317;49.048;8.468;2022-07-10T10:53:13;3.40;;;1.10;;
10537;SDS011;5317;49.048;8.468;2022-07-10T10:58:52;1.63;;;1.10;;
10537;SDS011;5317;49.048;8.468;2022-07-10T11:01:23;0.87;;;0.60;;
10537;SDS011;5317;49.048;8.468;2022-07-10T11:06:42;2.97;;;0.90;;
10537;SDS011;5317;49.048;8.468;2022-07-10T11:09:23;1.57;;;1.00;;
10537;SDS011;5317;49.048;8.468;2022-07-10T11:12:00;1.97;;;1.07;;
10537;SDS011;5317;49.048;8.468;2022-07-10T11:14:31;0.83;;;0.70;;
10537;SDS011;5317;49.048;8.468;2022-07-10T11:17:01;1.30;;;0.87;;
10537;SDS011;5317;49.048;8.468;2022-07-10T11:19:30;2.03;;;1.00;;
10537;SDS011;5317;49.048;8.468;2022-07-10T11:22:03;4.20;;;1.10;;
10537;SDS011;5317;49.048;8.468;2022-07-10T11:24:55;1.83;;;1.27;;
10537;SDS011;5317;49.048;8.468;2022-07-10T11:27:47;3.77;;;1.03;;
10537;SDS011;5317;49.048;8.468;2022-07-10T11:30:42;1.40;;;1.03;;
10537;SDS011;5317;49.048;8.468;2022-07-10T11:33:12;1.13;;;0.80;;
10537;SDS011;5317;49.048;8.468;2022-07-10T11:35:47;2.83;;;1.00;;
10537;SDS011;5317;49.048;8.468;2022-07-10T11:38:19;1.47;;;1.00;;
10537;SDS011;5317;49.048;8.468;2022-07-10T11:40:49;1.47;;;0.90;;
10537;SDS011;5317;49.048;8.468;2022-07-10T11:43:18;2.20;;;0.90;;
10537;SDS011;5317;49.048;8.468;2022-07-10T11:45:49;1.30;;;0.80;;
10537;SDS011;5317;49.048;8.468;2022-07-10T11:48:17;1.47;;;0.90;;
10537;SDS011;5317;49.048;8.468;2022-07-10T11:50:46;0.77;;;0.43;;
10537;SDS011;5317;49.048;8.468;2022-07-10T11:53:21;2.67;;;0.97;;
10537;SDS011;5317;49.048;8.468;2022-07-10T11:55:50;4.00;;;1.03;;
10537;SDS011;5317;49.048;8.468;2022-07-10T11:58:18;3.37;;;1.00;;
10537;SDS011;5317;49.048;8.468;2022-07-10T12:00:57;1.47;;;1.17;;
10537;SDS011;5317;49.048;8.468;2022-07-10T12:03:27;1.90;;;0.87;;
10537;SDS011;5317;49.048;8.468;2022-07-10T12:05:54;1.03;;;0.67;;
10537;SDS011;5317;49.048;8.468;2022-07-10T12:08:28;1.13;;;1.00;;
10537;SDS011;5317;49.048;8.468;2022-07-10T12:10:57;1.67;;;0.87;;
10537;SDS011;5317;49.048;8.468;2022-07-10T12:13:24;1.20;;;0.77;;
10537;SDS011;5317;49.048;8.468;2022-07-10T12:15:51;2.37;;;1.23;;
10537;SDS011;5317;49.048;8.468;2022-07-10T12:18:20;3.07;;;0.93;;
10537;SDS011;5317;49.048;8.468;2022-07-10T12:20:49;4.23;;;1.23;;
10537;SDS011;5317;49.048;8.468;2022-07-10T12:23:18;1.80;;;1.00;;
10537;SDS011;5317;49.048;8.468;2022-07-10T12:25:48;2.10;;;0.97;;
10537;SDS011;5317;49.048;8.468;2022-07-10T12:28:17;1.17;;;0.90;;
10537;SDS011;5317;49.048;8.468;2022-07-10T12:30:45;1.33;;;0.90;;
10537;SDS011;5317;49.048;8.468;2022-07-10T12:33:15;1.30;;;0.80;;
10537;SDS011;5317;49.048;8.468;2022-07-10T12:35:49;2.63;;;1.20;;
10537;SDS011;5317;49.048;8.468;2022-07-10T12:38:20;1.10;;;0.90;;
10537;SDS011;5317;49.048;8.468;2022-07-10T12:40:50;1.03;;;0.57;;
10537;SDS011;5317;49.048;8.468;2022-07-10T12:43:33;2.00;;;0.83;;
10537;SDS011;5317;49.048;8.468;2022-07-10T12:46:07;1.37;;;0.90;;
10537;SDS011;5317;49.048;8.468;2022-07-10T12:48:36;0.90;;;0.80;;
10537;SDS011;5317;49.048;8.468;2022-07-10T12:51:22;1.40;;;1.00;;
10537;SDS011;5317;49.048;8.468;2022-07-10T12:53:51;1.60;;;1.07;;
10537;SDS011;5317;49.048;8.468;2022-07-10T12:56:28;1.77;;;0.73;;
10537;SDS011;5317;49.048;8.468;2022-07-10T12:59:00;1.33;;;0.87;;
10537;SDS011;5317;49.048;8.468;2022-07-10T13:01:39;2.03;;;0.97;;
10537;SDS011;5317;49.048;8.468;2022-07-10T13:04:08;1.73;;;0.73;;
10537;SDS011;5317;49.048;8.468;2022-07-10T13:06:37;1.77;;;0.90;;
10537;SDS011;5317;49.048;8.468;2022-07-10T13:09:18;2.60;;;1.10;;
10537;SDS011;5317;49.048;8.468;2022-07-10T13:11:48;2.40;;;1.10;;
10537;SDS011;5317;49.048;8.468;2022-07-10T13:14:17;1.20;;;0.73;;
10537;SDS011;5317;49.048;8.468;2022-07-10T13:16:45;1.50;;;0.90;;
10537;SDS011;5317;49.048;8.468;2022-07-10T13:19:15;1.93;;;1.10;;
10537;SDS011;5317;49.048;8.468;2022-07-10T13:21:42;2.40;;;1.17;;
10537;SDS011;5317;49.048;8.468;2022-07-10T13:24:09;1.00;;;0.70;;
10537;SDS011;5317;49.048;8.468;2022-07-10T13:26:37;1.73;;;0.93;;
10537;SDS011;5317;49.048;8.468;2022-07-10T13:29:04;1.70;;;1.03;;
10537;SDS011;5317;49.048;8.468;2022-07-10T13:31:33;1.70;;;1.00;;
10537;SDS011;5317;49.048;8.468;2022-07-10T13:34:00;1.03;;;0.90;;
10537;SDS011;5317;49.048;8.468;2022-07-10T13:36:27;1.83;;;0.87;;
10537;SDS011;5317;49.048;8.468;2022-07-10T13:38:55;2.03;;;1.10;;
10537;SDS011;5317;49.048;8.468;2022-07-10T13:41:22;3.03;;;1.33;;
10537;SDS011;5317;49.048;8.468;2022-07-10T13:43:49;2.43;;;1.03;;
10537;SDS011;5317;49.048;8.468;2022-07-10T13:46:17;2.70;;;1.17;;
10537;SDS011;5317;49.048;8.468;2022-07-10T13:48:45;2.43;;;1.17;;
10537;SDS011;5317;49.048;8.468;2022-07-10T13:51:13;1.00;;;0.90;;
10537;SDS011;5317;49.048;8.468;2022-07-10T13:53:40;2.17;;;1.07;;
10537;SDS011;5317;49.048;8.468;2022-07-10T13:56:08;1.70;;;1.10;;
10537;SDS011;5317;49.048;8.468;2022-07-10T13:58:35;1.60;;;1.13;;
10537;SDS011;5317;49.048;8.468;2022-07-10T14:01:03;1.73;;;1.30;;
10537;SDS011;5317;49.048;8.468;2022-07-10T14:03:31;1.07;;;0.90;;
10537;SDS011;5317;49.048;8.468;2022-07-10T14:06:00;1.13;;;1.00;;
10537;SDS011;5317;49.048;8.468;2022-07-10T14:08:27;3.83;;;0.90;;
10537;SDS011;5317;49.048;8.468;2022-07-10T14:10:54;1.80;;;1.17;;
10537;SDS011;5317;49.048;8.468;2022-07-10T14:13:22;2.73;;;1.10;;
10537;SDS011;5317;49.048;8.468;2022-07-10T14:15:50;1.10;;;1.00;;
10537;SDS011;5317;49.048;8.468;2022-07-10T14:18:17;1.50;;;1.00;;
10537;SDS011;5317;49.048;8.468;2022-07-10T14:20:59;1.40;;;1.07;;
10537;SDS011;5317;49.048;8.468;2022-07-10T14:23:29;1.57;;;1.13;;
10537;SDS011;5317;49.048;8.468;2022-07-10T14:25:58;1.43;;;1.30;;
10537;SDS011;5317;49.048;8.468;2022-07-10T14:28:26;1.67;;;1.03;;
10537;SDS011;5317;49.048;8.468;2022-07-10T14:30:53;2.23;;;1.47;;
10537;SDS011;5317;49.048;8.468;2022-07-10T14:33:22;1.80;;;1.20;;
10537;SDS011;5317;49.048;8.468;2022-07-10T14:35:49;1.13;;;0.97;;
10537;SDS011;5317;49.048;8.468;2022-07-10T14:38:18;2.40;;;1.30;;
10537;SDS011;5317;49.048;8.468;2022-07-10T14:40:45;1.97;;;1.27;;
10537;SDS011;5317;49.048;8.468;2022-07-10T14:43:12;2.37;;;1.07;;
10537;SDS011;5317;49.048;8.468;2022-07-10T14:45:40;1.50;;;1.30;;
10537;SDS011;5317;49.048;8.468;2022-07-10T14:48:07;3.50;;;2.90;;
10537;SDS011;5317;49.048;8.468;2022-07-10T14:50:34;1.50;;;1.40;;
10537;SDS011;5317;49.048;8.468;2022-07-10T14:53:02;3.77;;;1.90;;
10537;SDS011;5317;49.048;8.468;2022-07-10T14:55:32;2.20;;;1.40;;
10537;SDS011;5317;49.048;8.468;2022-07-10T14:57:59;2.00;;;1.27;;
10537;SDS011;5317;49.048;8.468;2022-07-10T15:00:27;1.93;;;1.57;;
10537;SDS011;5317;49.048;8.468;2022-07-10T15:02:55;3.70;;;1.80;;
10537;SDS011;5317;49.048;8.468;2022-07-10T15:05:22;2.00;;;1.73;;
10537;SDS011;5317;49.048;8.468;2022-07-10T15:07:49;3.40;;;1.60;;
10537;SDS011;5317;49.048;8.468;2022-07-10T15:10:16;2.47;;;1.90;;
10537;SDS011;5317;49.048;8.468;2022-07-10T15:12:46;6.10;;;5.43;;
10537;SDS011;5317;49.048;8.468;2022-07-10T15:15:13;9.17;;;6.43;;
10537;SDS011;5317;49.048;8.468;2022-07-10T15:17:40;6.93;;;4.57;;
10537;SDS011;5317;49.048;8.468;2022-07-10T15:20:09;3.77;;;2.47;;
10537;SDS011;5317;49.048;8.468;2022-07-10T15:22:38;2.00;;;1.70;;